createdAt,value
2017-11-22T00:00:54.502Z,7.76
2017-11-22T00:01:54.409Z,7.79
2017-11-22T00:02:54.417Z,7.73
2017-11-22T00:03:54.397Z,7.73
2017-11-22T00:04:54.386Z,7.72
2017-11-22T00:05:54.392Z,7.75
2017-11-22T00:06:54.391Z,7.77
2017-11-22T00:07:54.286Z,7.83
2017-11-22T00:08:54.311Z,7.77
2017-11-22T00:09:54.264Z,7.76
2017-11-22T00:10:54.270Z,7.77
2017-11-22T00:11:54.229Z,7.85
2017-11-22T00:12:54.242Z,7.72
2017-11-22T00:13:54.177Z,7.76
2017-11-22T00:14:54.192Z,7.77
2017-11-22T00:15:54.156Z,7.77
2017-11-22T00:16:57.739Z,7.76
2017-11-22T00:17:54.105Z,7.80
2017-11-22T00:18:54.109Z,7.79
2017-11-22T00:19:54.037Z,7.79
2017-11-22T00:20:54.049Z,7.73
2017-11-22T00:21:53.993Z,7.75
2017-11-22T00:22:53.974Z,7.73
2017-11-22T00:23:53.979Z,7.75
2017-11-22T00:24:53.959Z,7.73
2017-11-22T00:25:53.922Z,7.73
2017-11-22T00:26:53.913Z,7.76
2017-11-22T00:27:53.931Z,7.76
2017-11-22T00:28:53.999Z,7.77
2017-11-22T00:29:53.963Z,7.79
2017-11-22T00:30:53.836Z,7.88
2017-11-22T00:31:53.850Z,7.87
2017-11-22T00:32:53.798Z,7.82
2017-11-22T00:33:53.787Z,7.80
2017-11-22T00:34:53.801Z,7.82
2017-11-22T00:35:53.714Z,7.76
2017-11-22T00:36:53.716Z,7.73
2017-11-22T00:37:53.700Z,7.85
2017-11-22T00:38:53.679Z,7.90
2017-11-22T00:39:53.611Z,7.83
2017-11-22T00:40:53.607Z,7.80
2017-11-22T00:41:53.541Z,7.82
2017-11-22T00:42:53.526Z,7.85
2017-11-22T00:43:53.521Z,7.76
2017-11-22T00:44:53.538Z,7.79
2017-11-22T00:45:53.482Z,7.83
2017-11-22T00:46:53.447Z,7.77
2017-11-22T00:47:53.449Z,7.79
2017-11-22T00:48:53.413Z,7.83
2017-11-22T00:49:53.368Z,7.77
2017-11-22T00:50:53.365Z,7.88
2017-11-22T00:51:53.356Z,7.90
2017-11-22T00:52:53.380Z,7.85
2017-11-22T00:53:53.271Z,7.88
2017-11-22T00:54:56.223Z,7.80
2017-11-22T00:55:53.268Z,7.90
2017-11-22T00:56:53.266Z,7.87
2017-11-22T00:57:53.276Z,7.91
2017-11-22T00:58:53.225Z,7.82
2017-11-22T00:59:53.144Z,7.80
2017-11-22T01:00:53.196Z,7.80
2017-11-22T01:01:53.147Z,7.83
2017-11-22T01:02:53.121Z,7.80
2017-11-22T01:03:53.090Z,7.85
2017-11-22T01:04:53.094Z,7.90
2017-11-22T01:05:53.027Z,7.83
2017-11-22T01:06:52.994Z,7.82
2017-11-22T01:07:52.994Z,7.83
2017-11-22T01:08:52.982Z,7.83
2017-11-22T01:09:52.962Z,7.82
2017-11-22T01:10:52.975Z,7.91
2017-11-22T01:11:52.902Z,7.88
2017-11-22T01:12:52.884Z,7.83
2017-11-22T01:13:52.889Z,7.91
2017-11-22T01:14:52.851Z,7.91
2017-11-22T01:15:52.827Z,7.91
2017-11-22T01:16:52.809Z,7.88
2017-11-22T01:17:52.758Z,7.90
2017-11-22T01:18:52.762Z,7.83
2017-11-22T01:19:52.751Z,7.90
2017-11-22T01:20:52.723Z,7.88
2017-11-22T01:21:52.695Z,7.93
2017-11-22T01:22:52.668Z,7.94
2017-11-22T01:23:52.689Z,7.83
2017-11-22T01:24:52.600Z,7.88
2017-11-22T01:25:52.606Z,7.85
2017-11-22T01:26:52.589Z,7.87
2017-11-22T01:27:52.548Z,7.90
2017-11-22T01:28:52.522Z,7.87
2017-11-22T01:29:52.527Z,7.87
2017-11-22T01:30:52.494Z,7.90
2017-11-22T01:31:52.468Z,7.83
2017-11-22T01:32:52.472Z,7.87
2017-11-22T01:33:52.516Z,7.85
2017-11-22T01:34:52.426Z,7.90
2017-11-22T01:35:52.373Z,7.88
2017-11-22T01:36:52.357Z,7.90
2017-11-22T01:37:52.330Z,7.90
2017-11-22T01:38:52.292Z,7.85
2017-11-22T01:39:52.316Z,7.93
2017-11-22T01:40:52.255Z,7.82
2017-11-22T01:41:52.253Z,7.90
2017-11-22T01:42:52.241Z,7.85
2017-11-22T01:43:52.221Z,7.82
2017-11-22T01:44:52.188Z,7.88
2017-11-22T01:45:52.153Z,7.90
2017-11-22T01:46:52.174Z,7.80
2017-11-22T01:47:52.169Z,7.88
2017-11-22T01:48:52.160Z,7.88
2017-11-22T01:49:52.091Z,7.88
2017-11-22T01:50:52.128Z,7.88
2017-11-22T01:51:53.735Z,7.91
2017-11-22T01:52:52.050Z,7.85
2017-11-22T01:53:51.990Z,7.90
2017-11-22T01:54:51.996Z,7.79
2017-11-22T01:55:51.995Z,7.79
2017-11-22T01:56:51.929Z,7.79
2017-11-22T01:57:51.965Z,7.79
2017-11-22T01:58:51.881Z,7.80
2017-11-22T01:59:51.884Z,7.76
2017-11-22T02:00:51.850Z,7.79
2017-11-22T02:01:51.848Z,7.77
2017-11-22T02:02:51.810Z,7.76
2017-11-22T02:03:51.803Z,7.77
2017-11-22T02:04:51.743Z,7.77
2017-11-22T02:05:51.713Z,7.79
2017-11-22T02:06:51.714Z,7.69
2017-11-22T02:07:51.704Z,7.80
2017-11-22T02:08:51.680Z,7.70
2017-11-22T02:09:51.651Z,7.79
2017-11-22T02:10:51.633Z,7.82
2017-11-22T02:11:51.596Z,7.70
2017-11-22T02:12:51.659Z,7.75
2017-11-22T02:13:51.613Z,7.70
2017-11-22T02:14:51.523Z,7.76
2017-11-22T02:15:51.567Z,7.76
2017-11-22T02:16:51.488Z,7.76
2017-11-22T02:17:51.497Z,7.76
2017-11-22T02:18:51.471Z,7.79
2017-11-22T02:19:51.412Z,7.73
2017-11-22T02:20:51.439Z,7.75
2017-11-22T02:21:51.381Z,7.72
2017-11-22T02:22:51.347Z,7.72
2017-11-22T02:23:51.335Z,7.83
2017-11-22T02:24:51.326Z,7.76
2017-11-22T02:25:51.278Z,7.76
2017-11-22T02:26:51.275Z,7.72
2017-11-22T02:27:51.272Z,7.73
2017-11-22T02:28:51.239Z,7.72
2017-11-22T02:29:51.247Z,7.70
2017-11-22T02:30:51.173Z,7.80
2017-11-22T02:31:51.167Z,7.75
2017-11-22T02:32:51.153Z,7.77
2017-11-22T02:33:51.171Z,7.73
2017-11-22T02:34:51.111Z,7.77
2017-11-22T02:35:51.062Z,7.85
2017-11-22T02:36:51.078Z,7.76
2017-11-22T02:37:51.052Z,7.69
2017-11-22T02:38:51.003Z,7.70
2017-11-22T02:39:51.748Z,7.75
2017-11-22T02:40:50.953Z,7.70
2017-11-22T02:41:50.967Z,7.76
2017-11-22T02:42:50.933Z,7.77
2017-11-22T02:43:50.896Z,7.80
2017-11-22T02:44:50.903Z,7.83
2017-11-22T02:45:53.777Z,7.85
2017-11-22T02:46:50.816Z,7.79
2017-11-22T02:47:50.822Z,7.76
2017-11-22T02:48:50.781Z,7.80
2017-11-22T02:49:50.802Z,7.85
2017-11-22T02:50:50.779Z,7.85
2017-11-22T02:51:50.728Z,7.83
2017-11-22T02:52:50.707Z,7.95
2017-11-22T02:53:50.729Z,7.90
2017-11-22T02:54:50.654Z,7.94
2017-11-22T02:55:50.701Z,7.87
2017-11-22T02:56:50.646Z,7.88
2017-11-22T02:57:50.654Z,7.85
2017-11-22T02:58:50.554Z,7.82
2017-11-22T02:59:51.301Z,7.94
2017-11-22T03:00:50.548Z,7.93
2017-11-22T03:01:50.494Z,7.93
2017-11-22T03:02:50.502Z,7.87
2017-11-22T03:03:50.473Z,7.93
2017-11-22T03:04:50.447Z,7.83
2017-11-22T03:05:50.462Z,7.88
2017-11-22T03:06:54.249Z,7.83
2017-11-22T03:07:50.393Z,7.83
2017-11-22T03:08:50.353Z,7.88
2017-11-22T03:09:50.356Z,7.93
2017-11-22T03:10:50.359Z,7.82
2017-11-22T03:11:50.369Z,7.80
2017-11-22T03:12:50.262Z,7.91
2017-11-22T03:13:50.251Z,7.79
2017-11-22T03:14:50.235Z,7.85
2017-11-22T03:15:50.187Z,7.90
2017-11-22T03:16:50.250Z,7.85
2017-11-22T03:17:50.220Z,7.87
2017-11-22T03:18:50.192Z,7.85
2017-11-22T03:19:50.101Z,7.91
2017-11-22T03:20:50.151Z,7.80
2017-11-22T03:21:50.089Z,7.91
2017-11-22T03:22:50.042Z,7.87
2017-11-22T03:23:50.041Z,7.82
2017-11-22T03:24:50.064Z,7.88
2017-11-22T03:25:50.043Z,7.80
2017-11-22T03:26:50.001Z,7.85
2017-11-22T03:27:49.981Z,7.87
2017-11-22T03:28:49.955Z,7.82
2017-11-22T03:29:49.880Z,7.88
2017-11-22T03:30:49.867Z,7.91
2017-11-22T03:31:49.851Z,7.87
2017-11-22T03:32:49.869Z,7.91
2017-11-22T03:33:49.804Z,7.88
2017-11-22T03:34:49.773Z,7.82
2017-11-22T03:35:49.786Z,7.88
2017-11-22T03:36:49.796Z,7.90
2017-11-22T03:37:49.739Z,7.85
2017-11-22T03:38:49.700Z,7.82
2017-11-22T03:39:49.710Z,7.93
2017-11-22T03:40:49.675Z,7.83
2017-11-22T03:41:49.626Z,7.80
2017-11-22T03:42:49.681Z,7.88
2017-11-22T03:43:49.634Z,7.83
2017-11-22T03:44:49.568Z,7.88
2017-11-22T03:45:49.539Z,7.88
2017-11-22T03:46:49.609Z,7.82
2017-11-22T03:47:49.552Z,7.80
2017-11-22T03:48:49.492Z,7.82
2017-11-22T03:49:49.455Z,7.83
2017-11-22T03:50:49.429Z,7.85
2017-11-22T03:51:49.402Z,7.83
2017-11-22T03:52:49.393Z,7.91
2017-11-22T03:53:49.377Z,7.91
2017-11-22T03:54:49.375Z,7.90
2017-11-22T03:55:49.321Z,7.93
2017-11-22T03:56:49.317Z,7.87
2017-11-22T03:57:49.314Z,7.90
2017-11-22T03:58:49.286Z,7.91
2017-11-22T03:59:49.247Z,7.79
2017-11-22T04:00:49.305Z,7.80
2017-11-22T04:01:49.194Z,7.88
2017-11-22T04:02:49.194Z,7.82
2017-11-22T04:03:49.185Z,7.90
2017-11-22T04:04:49.126Z,7.85
2017-11-22T04:05:49.159Z,7.80
2017-11-22T04:06:49.083Z,7.93
2017-11-22T04:07:49.066Z,7.93
2017-11-22T04:08:49.061Z,7.87
2017-11-22T04:09:49.026Z,7.82
2017-11-22T04:10:49.056Z,7.87
2017-11-22T04:11:48.996Z,7.83
2017-11-22T04:12:49.005Z,7.91
2017-11-22T04:13:48.987Z,7.88
2017-11-22T04:14:48.923Z,7.88
2017-11-22T04:15:48.926Z,7.88
2017-11-22T04:16:48.901Z,7.77
2017-11-22T04:17:48.851Z,7.88
2017-11-22T04:18:48.850Z,7.77
2017-11-22T04:19:48.852Z,7.88
2017-11-22T04:20:48.811Z,7.80
2017-11-22T04:21:48.813Z,7.79
2017-11-22T04:22:48.781Z,7.88
2017-11-22T04:23:48.761Z,7.83
2017-11-22T04:24:48.771Z,7.77
2017-11-22T04:25:48.706Z,7.85
2017-11-22T04:26:48.661Z,7.85
2017-11-22T04:27:48.636Z,7.85
2017-11-22T04:28:48.600Z,7.88
2017-11-22T04:29:48.639Z,7.82
2017-11-22T04:30:48.642Z,7.90
2017-11-22T04:31:48.598Z,7.85
2017-11-22T04:32:48.561Z,7.82
2017-11-22T04:33:48.522Z,7.88
2017-11-22T04:34:48.528Z,7.87
2017-11-22T04:35:48.473Z,7.85
2017-11-22T04:36:48.449Z,7.83
2017-11-22T04:37:52.884Z,7.87
2017-11-22T04:38:48.384Z,7.87
2017-11-22T04:39:48.371Z,7.91
2017-11-22T04:40:48.397Z,7.87
2017-11-22T04:41:48.367Z,7.94
2017-11-22T04:42:48.346Z,7.87
2017-11-22T04:43:48.312Z,7.90
2017-11-22T04:44:48.344Z,7.90
2017-11-22T04:45:49.453Z,7.94
2017-11-22T04:46:48.263Z,7.93
2017-11-22T04:47:48.374Z,7.88
2017-11-22T04:48:48.249Z,7.93
2017-11-22T04:49:48.185Z,7.88
2017-11-22T04:50:48.131Z,7.85
2017-11-22T04:51:49.655Z,7.93
2017-11-22T04:52:48.340Z,7.90
2017-11-22T04:53:49.851Z,7.95
2017-11-22T04:54:49.712Z,7.88
2017-11-22T04:55:55.110Z,7.88
2017-11-22T04:56:48.430Z,7.94
2017-11-22T04:57:48.020Z,7.87
2017-11-22T04:58:50.572Z,7.95
2017-11-22T04:59:48.105Z,7.87
2017-11-22T05:00:47.959Z,7.88
2017-11-22T05:01:47.920Z,7.87
2017-11-22T05:02:47.910Z,7.88
2017-11-22T05:03:50.826Z,7.93
2017-11-22T05:04:47.945Z,7.87
2017-11-22T05:05:47.925Z,7.91
2017-11-22T05:06:47.816Z,7.88
2017-11-22T05:07:47.817Z,7.90
2017-11-22T05:08:47.768Z,7.90
2017-11-22T05:09:47.812Z,7.90
2017-11-22T05:10:47.749Z,7.88
2017-11-22T05:11:47.795Z,7.87
2017-11-22T05:12:47.766Z,7.87
2017-11-22T05:13:47.843Z,7.90
2017-11-22T05:14:47.640Z,7.94
2017-11-22T05:15:47.634Z,7.91
2017-11-22T05:16:47.610Z,7.85
2017-11-22T05:17:47.564Z,7.93
2017-11-22T05:18:47.539Z,7.91
2017-11-22T05:19:47.497Z,7.90
2017-11-22T05:20:47.499Z,7.88
2017-11-22T05:21:47.441Z,7.88
2017-11-22T05:22:47.452Z,7.90
2017-11-22T05:23:47.419Z,7.97
2017-11-22T05:24:47.413Z,7.90
2017-11-22T05:25:47.409Z,7.98
2017-11-22T05:26:47.358Z,7.94
2017-11-22T05:27:47.359Z,7.88
2017-11-22T05:28:47.317Z,7.93
2017-11-22T05:29:47.329Z,7.93
2017-11-22T05:30:47.261Z,7.94
2017-11-22T05:31:47.250Z,7.91
2017-11-22T05:32:47.251Z,7.90
2017-11-22T05:33:47.209Z,7.93
2017-11-22T05:34:47.171Z,7.97
2017-11-22T05:35:47.182Z,7.88
2017-11-22T05:36:49.754Z,7.88
2017-11-22T05:37:47.154Z,7.98
2017-11-22T05:38:47.103Z,7.95
2017-11-22T05:39:47.066Z,8.00
2017-11-22T05:40:47.040Z,8.05
2017-11-22T05:41:47.027Z,7.97
2017-11-22T05:42:47.020Z,7.98
2017-11-22T05:43:46.980Z,8.03
2017-11-22T05:44:46.978Z,8.08
2017-11-22T05:45:46.922Z,8.03
2017-11-22T05:46:46.918Z,8.08
2017-11-22T05:47:46.882Z,8.03
2017-11-22T05:48:46.874Z,8.06
2017-11-22T05:49:46.861Z,8.01
2017-11-22T05:50:46.822Z,8.05
2017-11-22T05:51:46.816Z,8.06
2017-11-22T05:52:46.806Z,8.05
2017-11-22T05:53:46.765Z,8.03
2017-11-22T05:54:47.296Z,8.05
2017-11-22T05:55:46.712Z,8.06
2017-11-22T05:56:46.706Z,8.05
2017-11-22T05:57:46.669Z,8.05
2017-11-22T05:58:46.679Z,8.05
2017-11-22T05:59:46.628Z,8.05
2017-11-22T06:00:46.622Z,8.03
2017-11-22T06:01:46.576Z,8.05
2017-11-22T06:02:46.575Z,8.05
2017-11-22T06:03:48.272Z,8.03
2017-11-22T06:04:46.546Z,8.01
2017-11-22T06:05:51.296Z,8.08
2017-11-22T06:06:46.501Z,8.00
2017-11-22T06:07:46.474Z,8.01
2017-11-22T06:08:46.470Z,7.95
2017-11-22T06:09:46.408Z,8.08
2017-11-22T06:10:46.416Z,8.03
2017-11-22T06:11:46.374Z,7.97
2017-11-22T06:12:46.350Z,8.05
2017-11-22T06:13:46.346Z,7.98
2017-11-22T06:14:46.337Z,7.94
2017-11-22T06:15:46.268Z,8.09
2017-11-22T06:16:46.302Z,8.06
2017-11-22T06:17:46.242Z,8.05
2017-11-22T06:18:46.224Z,8.05
2017-11-22T06:19:46.217Z,8.03
2017-11-22T06:20:46.164Z,8.12
2017-11-22T06:21:46.163Z,8.05
2017-11-22T06:22:48.780Z,7.95
2017-11-22T06:23:46.115Z,7.98
2017-11-22T06:24:46.109Z,8.05
2017-11-22T06:25:46.823Z,8.01
2017-11-22T06:26:46.075Z,7.91
2017-11-22T06:27:48.790Z,7.91
2017-11-22T06:28:48.787Z,7.95
2017-11-22T06:29:46.016Z,7.93
2017-11-22T06:30:48.787Z,8.01
2017-11-22T06:31:45.968Z,7.97
2017-11-22T06:32:45.919Z,7.98
2017-11-22T06:33:45.885Z,7.97
2017-11-22T06:34:46.000Z,7.95
2017-11-22T06:35:45.852Z,7.95
2017-11-22T06:36:45.865Z,7.91
2017-11-22T06:37:45.828Z,7.87
2017-11-22T06:38:45.782Z,7.91
2017-11-22T06:39:45.783Z,7.90
2017-11-22T06:40:45.730Z,7.97
2017-11-22T06:41:45.721Z,7.90
2017-11-22T06:42:45.705Z,7.88
2017-11-22T06:43:45.700Z,7.91
2017-11-22T06:44:48.283Z,7.91
2017-11-22T06:45:45.626Z,7.88
2017-11-22T06:46:45.610Z,7.91
2017-11-22T06:47:45.614Z,7.87
2017-11-22T06:48:45.559Z,7.88
2017-11-22T06:49:45.575Z,7.93
2017-11-22T06:50:45.554Z,7.87
2017-11-22T06:51:45.520Z,7.88
2017-11-22T06:52:45.485Z,7.88
2017-11-22T06:53:48.340Z,7.90
2017-11-22T06:54:45.445Z,7.88
2017-11-22T06:55:45.408Z,7.91
2017-11-22T06:56:45.425Z,7.90
2017-11-22T06:57:45.408Z,7.90
2017-11-22T06:58:45.360Z,7.95
2017-11-22T06:59:45.343Z,8.05
2017-11-22T07:00:45.307Z,8.09
2017-11-22T07:01:48.301Z,8.03
2017-11-22T07:02:45.265Z,8.06
2017-11-22T07:03:47.810Z,8.03
2017-11-22T07:04:45.225Z,8.08
2017-11-22T07:05:45.210Z,8.13
2017-11-22T07:06:46.796Z,8.16
2017-11-22T07:08:07.813Z,8.15
2017-11-22T07:08:48.779Z,8.15
2017-11-22T07:09:47.798Z,8.15
2017-11-22T07:10:45.089Z,8.18
2017-11-22T07:11:45.094Z,8.26
2017-11-22T07:12:45.049Z,8.19
2017-11-22T07:13:47.839Z,8.16
2017-11-22T07:14:45.000Z,8.24
2017-11-22T07:15:45.011Z,8.27
2017-11-22T07:16:45.007Z,8.28
2017-11-22T07:17:47.794Z,8.37
2017-11-22T07:18:44.928Z,8.36
2017-11-22T07:19:44.907Z,8.36
2017-11-22T07:20:48.811Z,8.37
2017-11-22T07:21:44.874Z,8.38
2017-11-22T07:22:44.871Z,8.44
2017-11-22T07:23:48.883Z,8.45
2017-11-22T07:24:44.815Z,8.42
2017-11-22T07:25:45.311Z,8.38
2017-11-22T07:26:47.331Z,8.48
2017-11-22T07:27:44.725Z,8.46
2017-11-22T07:28:44.736Z,8.46
2017-11-22T07:29:44.690Z,8.42
2017-11-22T07:30:44.678Z,8.55
2017-11-22T07:31:47.284Z,8.48
2017-11-22T07:32:44.646Z,8.52
2017-11-22T07:33:44.607Z,8.38
2017-11-22T07:34:44.625Z,8.51
2017-11-22T07:35:44.609Z,8.56
2017-11-22T07:36:44.559Z,8.56
2017-11-22T07:37:44.549Z,8.51
2017-11-22T07:38:47.379Z,8.56
2017-11-22T07:39:44.476Z,8.56
2017-11-22T07:40:44.488Z,8.55
2017-11-22T07:41:44.425Z,8.55
2017-11-22T07:42:44.436Z,8.53
2017-11-22T07:43:47.327Z,8.53
2017-11-22T07:44:44.411Z,8.56
2017-11-22T07:45:44.387Z,8.63
2017-11-22T07:46:44.327Z,8.56
2017-11-22T07:47:44.298Z,8.58
2017-11-22T07:48:44.315Z,8.55
2017-11-22T07:49:44.269Z,8.63
2017-11-22T07:50:44.257Z,8.70
2017-11-22T07:51:44.743Z,8.66
2017-11-22T07:52:44.256Z,8.69
2017-11-22T07:53:47.872Z,8.61
2017-11-22T07:54:44.208Z,8.61
2017-11-22T07:55:44.156Z,8.64
2017-11-22T07:56:47.840Z,8.71
2017-11-22T07:57:44.203Z,8.67
2017-11-22T07:58:44.172Z,8.73
2017-11-22T07:59:44.058Z,8.74
2017-11-22T08:00:44.501Z,8.67
2017-11-22T08:01:44.032Z,8.71
2017-11-22T08:02:44.091Z,8.71
2017-11-22T08:03:43.989Z,8.71
2017-11-22T08:04:43.956Z,8.69
2017-11-22T08:05:43.919Z,8.67
2017-11-22T08:06:43.905Z,8.69
2017-11-22T08:07:43.889Z,8.71
2017-11-22T08:08:43.845Z,8.64
2017-11-22T08:09:43.874Z,8.66
2017-11-22T08:10:43.812Z,8.74
2017-11-22T08:11:43.789Z,8.70
2017-11-22T08:12:43.778Z,8.73
2017-11-22T08:13:43.763Z,8.67
2017-11-22T08:14:43.849Z,8.78
2017-11-22T08:15:43.739Z,8.73
2017-11-22T08:16:43.669Z,8.74
2017-11-22T08:17:43.660Z,8.79
2017-11-22T08:18:43.630Z,8.79
2017-11-22T08:19:43.613Z,8.81
2017-11-22T08:20:43.767Z,8.81
2017-11-22T08:21:43.615Z,8.82
2017-11-22T08:22:46.318Z,8.82
2017-11-22T08:23:43.522Z,8.85
2017-11-22T08:24:43.519Z,8.88
2017-11-22T08:25:43.608Z,8.87
2017-11-22T08:26:43.533Z,8.88
2017-11-22T08:27:43.528Z,8.87
2017-11-22T08:28:43.419Z,8.87
2017-11-22T08:29:43.406Z,8.84
2017-11-22T08:30:43.413Z,8.84
2017-11-22T08:31:43.401Z,9.04
2017-11-22T08:32:43.368Z,8.92
2017-11-22T08:33:45.333Z,8.91
2017-11-22T08:34:43.301Z,8.88
2017-11-22T08:35:43.271Z,8.99
2017-11-22T08:36:43.261Z,8.92
2017-11-22T08:37:43.244Z,8.94
2017-11-22T08:38:43.218Z,8.92
2017-11-22T08:39:43.190Z,8.94
2017-11-22T08:40:43.179Z,8.92
2017-11-22T08:41:43.135Z,8.94
2017-11-22T08:42:44.814Z,8.91
2017-11-22T08:43:43.097Z,8.97
2017-11-22T08:44:45.862Z,9.02
2017-11-22T08:45:43.057Z,9.00
2017-11-22T08:46:43.830Z,9.04
2017-11-22T08:47:43.043Z,9.11
2017-11-22T08:48:43.042Z,9.04
2017-11-22T08:49:42.986Z,9.04
2017-11-22T08:50:42.960Z,9.08
2017-11-22T08:51:42.991Z,9.13
2017-11-22T08:52:42.929Z,9.10
2017-11-22T08:53:42.933Z,9.02
2017-11-22T08:54:42.878Z,9.11
2017-11-22T08:55:42.851Z,9.11
2017-11-22T08:56:43.125Z,9.22
2017-11-22T08:57:42.852Z,9.26
2017-11-22T08:58:43.103Z,9.22
2017-11-22T08:59:42.763Z,9.31
2017-11-22T09:00:42.770Z,9.26
2017-11-22T09:01:42.746Z,9.21
2017-11-22T09:02:42.783Z,9.26
2017-11-22T09:03:42.703Z,9.29
2017-11-22T09:04:42.714Z,9.32
2017-11-22T09:05:42.673Z,9.32
2017-11-22T09:06:42.611Z,9.34
2017-11-22T09:07:42.640Z,9.34
2017-11-22T09:08:42.613Z,9.26
2017-11-22T09:09:42.584Z,9.28
2017-11-22T09:10:42.529Z,9.32
2017-11-22T09:11:42.524Z,9.25
2017-11-22T09:12:46.398Z,9.28
2017-11-22T09:13:42.589Z,9.28
2017-11-22T09:14:44.350Z,9.21
2017-11-22T09:15:42.514Z,9.25
2017-11-22T09:16:42.447Z,9.26
2017-11-22T09:17:42.474Z,9.31
2017-11-22T09:18:42.540Z,9.19
2017-11-22T09:19:42.359Z,9.19
2017-11-22T09:20:45.856Z,9.23
2017-11-22T09:21:42.349Z,9.04
2017-11-22T09:22:42.315Z,9.21
2017-11-22T09:23:42.285Z,9.19
2017-11-22T09:24:42.253Z,9.18
2017-11-22T09:25:42.217Z,9.23
2017-11-22T09:26:42.227Z,9.19
2017-11-22T09:27:42.217Z,9.19
2017-11-22T09:28:42.219Z,9.22
2017-11-22T09:29:42.191Z,9.25
2017-11-22T09:30:42.184Z,9.26
2017-11-22T09:31:42.089Z,9.32
2017-11-22T09:32:42.178Z,9.26
2017-11-22T09:33:44.010Z,9.31
2017-11-22T09:34:44.012Z,9.26
2017-11-22T09:35:49.959Z,9.23
2017-11-22T09:36:42.129Z,9.31
2017-11-22T09:37:41.991Z,9.32
2017-11-22T09:38:41.960Z,9.23
2017-11-22T09:39:43.902Z,9.28
2017-11-22T09:40:41.896Z,9.29
2017-11-22T09:41:45.909Z,9.29
2017-11-22T09:42:42.013Z,9.34
2017-11-22T09:43:41.910Z,9.44
2017-11-22T09:44:41.940Z,9.43
2017-11-22T09:45:43.430Z,9.41
2017-11-22T09:46:41.971Z,9.46
2017-11-22T09:47:41.836Z,9.43
2017-11-22T09:48:41.928Z,9.51
2017-11-22T09:49:44.483Z,9.46
2017-11-22T09:50:41.702Z,9.48
2017-11-22T09:51:41.825Z,9.44
2017-11-22T09:52:41.653Z,9.47
2017-11-22T09:53:41.705Z,9.51
2017-11-22T09:54:45.268Z,9.48
2017-11-22T09:55:41.694Z,9.47
2017-11-22T09:56:41.618Z,9.41
2017-11-22T09:57:41.674Z,9.46
2017-11-22T09:58:41.685Z,9.40
2017-11-22T09:59:45.467Z,9.40
2017-11-22T10:00:41.736Z,9.41
2017-11-22T10:01:41.707Z,9.43
2017-11-22T10:02:45.463Z,9.48
2017-11-22T10:03:41.563Z,9.48
2017-11-22T10:04:41.657Z,9.46
2017-11-22T10:05:41.533Z,9.55
2017-11-22T10:06:42.458Z,9.48
2017-11-22T10:07:41.600Z,9.61
2017-11-22T10:08:43.956Z,9.62
2017-11-22T10:09:41.523Z,9.69
2017-11-22T10:10:41.466Z,9.64
2017-11-22T10:11:45.202Z,9.62
2017-11-22T10:12:41.479Z,9.66
2017-11-22T10:13:43.210Z,9.68
2017-11-22T10:14:41.390Z,9.65
2017-11-22T10:15:41.238Z,9.58
2017-11-22T10:16:41.216Z,9.72
2017-11-22T10:17:41.152Z,9.69
2017-11-22T10:18:43.960Z,9.69
2017-11-22T10:19:45.773Z,9.73
2017-11-22T10:20:45.201Z,9.73
2017-11-22T10:21:41.199Z,9.77
2017-11-22T10:22:44.317Z,9.83
2017-11-22T10:23:41.055Z,9.82
2017-11-22T10:24:44.166Z,9.83
2017-11-22T10:25:42.083Z,9.89
2017-11-22T10:26:44.002Z,10.04
2017-11-22T10:27:41.064Z,10.05
2017-11-22T10:28:40.999Z,10.15
2017-11-22T10:29:43.928Z,10.16
2017-11-22T10:30:41.088Z,10.19
2017-11-22T10:31:40.873Z,10.17
2017-11-22T10:32:40.885Z,10.20
2017-11-22T10:33:43.458Z,10.22
2017-11-22T10:34:40.927Z,10.30
2017-11-22T10:35:40.779Z,10.38
2017-11-22T10:36:40.881Z,10.53
2017-11-22T10:37:40.743Z,10.54
2017-11-22T10:38:40.774Z,10.60
2017-11-22T10:39:42.482Z,10.67
2017-11-22T10:40:40.824Z,11.11
2017-11-22T10:41:40.725Z,11.27
2017-11-22T10:42:40.630Z,11.48
2017-11-22T10:43:43.446Z,11.75
2017-11-22T10:44:40.586Z,11.88
2017-11-22T10:45:42.514Z,12.03
2017-11-22T10:46:40.588Z,12.07
2017-11-22T10:47:40.593Z,12.47
2017-11-22T10:48:40.533Z,12.64
2017-11-22T10:49:40.568Z,12.94
2017-11-22T10:50:40.579Z,13.12
2017-11-22T10:51:45.284Z,13.38
2017-11-22T10:52:40.511Z,13.56
2017-11-22T10:53:40.462Z,13.78
2017-11-22T10:54:40.418Z,13.90
2017-11-22T10:55:40.445Z,13.89
2017-11-22T10:56:40.350Z,13.97
2017-11-22T10:57:40.418Z,14.35
2017-11-22T10:58:40.336Z,15.31
2017-11-22T10:59:40.351Z,16.28
2017-11-22T11:00:40.281Z,17.08
2017-11-22T11:01:40.274Z,17.45
2017-11-22T11:02:40.270Z,17.60
2017-11-22T11:03:40.270Z,17.42
2017-11-22T11:04:40.280Z,17.11
2017-11-22T11:05:40.266Z,17.12
2017-11-22T11:06:40.242Z,16.64
2017-11-22T11:07:40.234Z,16.64
2017-11-22T11:08:40.239Z,16.57
2017-11-22T11:09:42.790Z,16.38
2017-11-22T11:10:40.147Z,16.24
2017-11-22T11:11:40.095Z,16.58
2017-11-22T11:12:40.115Z,17.09
2017-11-22T11:13:42.936Z,17.41
2017-11-22T11:14:40.109Z,17.64
2017-11-22T11:15:43.008Z,17.49
2017-11-22T11:16:40.081Z,17.27
2017-11-22T11:17:40.048Z,16.99
2017-11-22T11:18:40.016Z,16.68
2017-11-22T11:19:39.982Z,16.31
2017-11-22T11:20:40.085Z,16.00
2017-11-22T11:21:42.876Z,15.91
2017-11-22T11:22:39.913Z,15.88
2017-11-22T11:23:44.393Z,15.79
2017-11-22T11:24:39.865Z,15.80
2017-11-22T11:25:39.981Z,15.84
2017-11-22T11:26:39.894Z,15.98
2017-11-22T11:27:39.795Z,16.16
2017-11-22T11:28:39.884Z,16.54
2017-11-22T11:29:39.880Z,17.01
2017-11-22T11:30:42.449Z,17.22
2017-11-22T11:31:39.879Z,17.44
2017-11-22T11:32:42.380Z,17.97
2017-11-22T11:33:39.910Z,18.44
2017-11-22T11:34:39.819Z,18.63
2017-11-22T11:35:39.715Z,18.73
2017-11-22T11:36:39.795Z,18.74
2017-11-22T11:37:44.504Z,18.65
2017-11-22T11:38:39.662Z,18.52
2017-11-22T11:39:39.679Z,18.58
2017-11-22T11:40:39.660Z,18.56
2017-11-22T11:41:42.466Z,18.43
2017-11-22T11:42:39.668Z,18.65
2017-11-22T11:43:39.641Z,18.58
2017-11-22T11:44:39.614Z,18.22
2017-11-22T11:45:39.570Z,18.25
2017-11-22T11:46:39.689Z,18.19
2017-11-22T11:47:39.608Z,18.29
2017-11-22T11:48:39.542Z,18.56
2017-11-22T11:49:42.463Z,18.62
2017-11-22T11:50:39.510Z,18.81
2017-11-22T11:51:39.470Z,18.89
2017-11-22T11:52:39.480Z,18.92
2017-11-22T11:53:39.793Z,18.83
2017-11-22T11:54:41.463Z,18.88
2017-11-22T11:55:39.364Z,19.11
2017-11-22T11:56:39.394Z,19.16
2017-11-22T11:57:40.955Z,19.44
2017-11-22T11:58:41.081Z,19.70
2017-11-22T11:59:39.341Z,19.89
2017-11-22T12:00:39.498Z,20.04
2017-11-22T12:01:39.282Z,19.95
2017-11-22T12:02:39.273Z,19.91
2017-11-22T12:03:39.273Z,20.02
2017-11-22T12:04:42.889Z,19.89
2017-11-22T12:05:39.272Z,19.54
2017-11-22T12:06:39.318Z,19.11
2017-11-22T12:07:39.252Z,18.90
2017-11-22T12:08:39.256Z,18.84
2017-11-22T12:09:41.986Z,18.60
2017-11-22T12:10:39.292Z,18.28
2017-11-22T12:11:39.165Z,17.89
2017-11-22T12:12:39.183Z,17.45
2017-11-22T12:13:39.163Z,17.15
2017-11-22T12:14:39.135Z,16.91
2017-11-22T12:15:40.951Z,16.76
2017-11-22T12:16:39.116Z,16.87
2017-11-22T12:17:39.268Z,16.91
2017-11-22T12:18:39.075Z,16.89
2017-11-22T12:19:42.975Z,16.76
2017-11-22T12:20:39.811Z,16.57
2017-11-22T12:21:39.146Z,16.29
2017-11-22T12:22:39.062Z,15.94
2017-11-22T12:23:39.181Z,15.80
2017-11-22T12:24:39.037Z,15.64
2017-11-22T12:25:39.033Z,15.75
2017-11-22T12:26:39.137Z,15.55
2017-11-22T12:27:39.044Z,15.22
2017-11-22T12:28:38.966Z,15.02
2017-11-22T12:29:38.950Z,14.88
2017-11-22T12:30:38.996Z,14.82
2017-11-22T12:31:38.977Z,14.73
2017-11-22T12:32:42.538Z,14.48
2017-11-22T12:33:42.592Z,14.20
2017-11-22T12:34:38.931Z,14.08
2017-11-22T12:35:38.961Z,14.08
2017-11-22T12:36:40.626Z,14.25
2017-11-22T12:37:38.966Z,14.32
2017-11-22T12:38:38.825Z,14.40
2017-11-22T12:39:40.555Z,14.60
2017-11-22T12:40:38.731Z,14.73
2017-11-22T12:41:38.883Z,14.86
2017-11-22T12:42:38.674Z,14.86
2017-11-22T12:43:38.862Z,14.59
2017-11-22T12:44:38.659Z,14.33
2017-11-22T12:45:40.531Z,14.14
2017-11-22T12:46:41.552Z,13.99
2017-11-22T12:47:38.775Z,13.86
2017-11-22T12:48:38.664Z,13.83
2017-11-22T12:49:38.812Z,13.79
2017-11-22T12:50:38.621Z,13.71
2017-11-22T12:51:40.601Z,13.74
2017-11-22T12:52:41.550Z,13.89
2017-11-22T12:53:41.430Z,13.95
2017-11-22T12:54:38.634Z,13.89
2017-11-22T12:55:40.517Z,13.90
2017-11-22T12:56:38.503Z,13.77
2017-11-22T12:57:38.607Z,13.59
2017-11-22T12:58:39.002Z,13.38
2017-11-22T12:59:42.009Z,13.38
2017-11-22T13:00:38.350Z,13.42
2017-11-22T13:01:38.486Z,13.44
2017-11-22T13:02:38.358Z,13.50
2017-11-22T13:03:38.331Z,13.47
2017-11-22T13:04:38.309Z,13.67
2017-11-22T13:05:38.311Z,13.79
2017-11-22T13:06:38.337Z,13.97
2017-11-22T13:07:40.971Z,14.18
2017-11-22T13:08:41.989Z,14.55
2017-11-22T13:09:40.926Z,14.66
2017-11-22T13:10:38.188Z,14.53
2017-11-22T13:11:40.975Z,14.32
2017-11-22T13:12:38.299Z,14.50